Time;durP1;ratioP1;P1;durP2;ratioP2;P2;SDS_P1;SDS_P2;PMS_P1;PMS_P2;Temp;Humidity;BMP_temperature;BMP_pressure;BME280_temperature;BME280_humidity;BME280_pressure;Samples;Min_cycle;Max_cycle;Signal;HPM_P1;HPM_P2
2023/07/21 00:01:02;;;;;;;31.98;1.88;;;;;;;26.27;53.88;99137.38;7315253;19;128967;-34
2023/07/21 00:03:28;;;;;;;83.00;4.80;;;;;;;26.45;54.42;99136.03;7313340;19;129423;-34
2023/07/21 00:05:54;;;;;;;24.20;1.40;;;;;;;26.54;54.70;99139.38;7314932;19;129264;-36
2023/07/21 00:08:20;;;;;;;36.65;1.90;;;;;;;26.60;54.73;99134.19;7313464;19;129424;-33
2023/07/21 00:10:46;;;;;;;45.05;2.58;;;;;;;26.65;54.50;99138.91;7313186;19;129966;-35
2023/07/21 00:13:11;;;;;;;55.37;2.87;;;;;;;26.72;54.62;99142.50;7311852;19;129099;-41
2023/07/21 00:15:37;;;;;;;71.93;4.27;;;;;;;26.73;54.68;99134.41;7313867;19;129291;-34
2023/07/21 00:18:03;;;;;;;43.83;2.60;;;;;;;26.75;54.36;99132.41;7312719;19;129198;-35
2023/07/21 00:20:29;;;;;;;42.80;2.53;;;;;;;26.75;54.79;99137.69;7313554;19;130253;-35
2023/07/21 00:22:55;;;;;;;25.77;1.55;;;;;;;26.75;54.60;99132.41;7313339;19;129119;-35
2023/07/21 00:25:20;;;;;;;28.07;1.53;;;;;;;26.76;54.94;99136.66;7313320;19;130840;-32
2023/07/21 00:27:46;;;;;;;39.40;2.40;;;;;;;26.78;54.74;99134.66;7313401;19;130959;-31
2023/07/21 00:30:12;;;;;;;23.10;1.50;;;;;;;26.78;54.71;99133.84;7314003;19;129181;-36
2023/07/21 00:32:40;;;;;;;58.38;3.40;;;;;;;26.44;51.24;99129.13;7311221;19;130067;-35
2023/07/21 00:35:09;;;;;;;14.18;0.90;;;;;;;26.21;50.68;99125.75;7313468;19;130145;-34
2023/07/21 00:37:36;;;;;;;38.83;2.28;;;;;;;26.10;50.80;99120.91;7312421;19;129102;-37
2023/07/21 00:40:05;;;;;;;24.73;1.45;;;;;;;26.31;54.30;99123.63;7313815;19;128897;-36
2023/07/21 00:42:31;;;;;;;39.28;2.20;;;;;;;26.45;54.26;99125.47;7311901;19;129231;-32
2023/07/21 00:44:56;;;;;;;24.45;1.42;;;;;;;26.52;54.36;99121.13;7312653;19;129182;-35
2023/07/21 00:47:23;;;;;;;41.20;2.37;;;;;;;26.51;54.64;99108.91;7311664;19;128776;-38
2023/07/21 00:49:49;;;;;;;74.00;4.30;;;;;;;26.65;54.82;99121.31;7311412;19;129541;-36
2023/07/21 00:52:17;;;;;;;38.13;2.08;;;;;;;26.68;55.09;99123.59;7311418;19;130346;-34
2023/07/21 00:54:44;;;;;;;44.42;2.58;;;;;;;26.71;54.94;99119.75;7312748;19;131311;-39
2023/07/21 00:57:09;;;;;;;55.83;3.42;;;;;;;26.72;54.94;99113.47;7312489;19;128998;-36
2023/07/21 00:59:35;;;;;;;34.50;1.90;;;;;;;26.66;54.47;99112.38;7313315;19;128993;-35
2023/07/21 01:02:01;;;;;;;58.33;3.37;;;;;;;26.74;54.85;99125.47;7310293;19;129023;-37
2023/07/21 01:04:26;;;;;;;16.43;0.93;;;;;;;26.75;54.96;99126.28;7312165;19;129656;-32
2023/07/21 01:06:53;;;;;;;73.57;4.20;;;;;;;26.75;54.79;99116.56;7311835;19;130525;-35
2023/07/21 01:09:19;;;;;;;;;;;;;;;26.62;53.33;99113.75;7310776;19;129138;-37
2023/07/21 01:11:45;;;;;;;32.45;1.85;;;;;;;26.21;51.17;99117.84;7310618;19;130342;-33
2023/07/21 01:14:10;;;;;;;54.88;2.85;;;;;;;26.12;50.50;99108.38;7312142;19;129602;-35
2023/07/21 01:16:43;;;;;;;24.33;1.57;;;;;;;26.25;53.53;99108.56;7312054;19;129689;-33
2023/07/21 01:19:15;;;;;;;55.53;2.95;;;;;;;26.43;54.16;99106.38;7310818;19;128954;-40
2023/07/21 01:21:43;;;;;;;34.10;1.92;;;;;;;26.53;54.33;99106.09;7310696;19;129423;-35
2023/07/21 01:24:23;;;;;;;32.88;1.88;;;;;;;26.61;55.01;99108.66;7311138;19;130659;-35
2023/07/21 01:26:50;;;;;;;36.92;2.17;;;;;;;26.63;54.86;99110.09;7312063;19;128945;-35
2023/07/21 01:29:18;;;;;;;48.50;2.55;;;;;;;26.67;54.91;99113.22;7310282;19;130192;-32
2023/07/21 01:31:45;;;;;;;33.83;2.13;;;;;;;26.69;55.30;99105.94;7309247;19;130844;-34
2023/07/21 01:34:14;;;;;;;51.67;2.97;;;;;;;26.71;54.90;99104.75;7311403;19;129155;-34
2023/07/21 01:36:41;;;;;;;30.67;1.77;;;;;;;26.70;54.91;99103.13;7313034;19;131019;-36
2023/07/21 01:39:06;;;;;;;;;;;;;;;26.83;55.15;99105.91;7309902;19;130790;-32
2023/07/21 01:41:33;;;;;;;35.05;2.08;;;;;;;26.74;55.16;99099.09;7309041;19;130937;-32
2023/07/21 01:43:59;;;;;;;58.58;3.30;;;;;;;26.74;55.03;99099.09;7311029;19;130448;-33
2023/07/21 01:46:24;;;;;;;32.63;1.80;;;;;;;26.73;54.60;99097.47;7311823;19;129184;-33
2023/07/21 01:48:49;;;;;;;25.83;1.43;;;;;;;26.32;51.39;99098.94;7309662;19;128871;-35
2023/07/21 01:51:19;;;;;;;39.27;2.23;;;;;;;26.14;51.23;99093.22;7310129;19;129440;-37
2023/07/21 01:53:49;;;;;;;41.05;2.22;;;;;;;26.12;52.98;99097.00;7311608;19;130472;-34
2023/07/21 01:56:30;;;;;;;47.63;2.80;;;;;;;26.40;54.32;99090.09;7311224;19;129888;-29
2023/07/21 01:59:01;;;;;;;24.85;1.35;;;;;;;26.50;54.97;99096.75;7310266;19;131174;-35
2023/07/21 02:01:28;;;;;;;53.85;3.25;;;;;;;26.56;54.71;99098.63;7308492;19;129108;-34
2023/07/21 02:03:53;;;;;;;28.38;1.55;;;;;;;26.60;54.97;99092.00;7310745;19;130976;-37
2023/07/21 02:06:19;;;;;;;25.87;1.73;;;;;;;26.65;54.54;99094.94;7309714;19;129169;-34
2023/07/21 02:08:44;;;;;;;31.20;1.73;;;;;;;26.67;54.83;99087.66;7309705;19;129310;-35
2023/07/21 02:11:10;;;;;;;78.93;4.43;;;;;;;26.68;55.20;99081.38;7309194;19;130074;-36
2023/07/21 02:13:35;;;;;;;30.27;1.80;;;;;;;26.63;55.03;99070.53;7310530;19;130475;-34
2023/07/21 02:16:01;;;;;;;39.73;2.23;;;;;;;26.71;55.07;99088.09;7310619;19;129199;-34
2023/07/21 02:18:26;;;;;;;47.90;2.97;;;;;;;26.73;54.49;99092.19;7310269;19;129404;-33
2023/07/21 02:20:52;;;;;;;29.83;1.67;;;;;;;26.71;54.58;99075.72;7309487;19;129762;-38
2023/07/21 02:23:17;;;;;;;45.53;2.87;;;;;;;26.74;54.67;99078.00;7306422;19;131830;-36
2023/07/21 02:25:46;;;;;;;34.37;1.90;;;;;;;26.30;51.64;99079.84;7310569;19;130125;-36
2023/07/21 02:28:11;;;;;;;27.20;1.60;;;;;;;26.18;51.07;99081.28;7309317;19;129855;-35
2023/07/21 02:30:37;;;;;;;71.47;4.30;;;;;;;26.11;50.84;99085.66;7308368;19;130160;-34
2023/07/21 02:33:02;;;;;;;44.40;2.47;;;;;;;26.33;54.01;99082.13;7307217;19;130456;-38
2023/07/21 02:35:28;;;;;;;16.70;1.13;;;;;;;26.47;54.21;99078.66;7309962;19;129069;-36
2023/07/21 02:37:53;;;;;;;21.83;1.27;;;;;;;26.53;54.32;99077.91;7309571;19;129032;-31
2023/07/21 02:40:19;;;;;;;23.63;1.37;;;;;;;26.59;54.42;99085.06;7309433;19;128929;-35
2023/07/21 02:42:44;;;;;;;74.53;4.23;;;;;;;26.55;55.08;99072.47;7306381;19;130372;-35
2023/07/21 02:45:10;;;;;;;39.03;2.17;;;;;;;26.66;54.81;99083.38;7310598;19;128773;-34
2023/07/21 02:47:35;;;;;;;26.57;1.47;;;;;;;26.68;55.32;99076.09;7309389;19;129412;-34
2023/07/21 02:50:01;;;;;;;26.50;1.53;;;;;;;26.71;54.97;99083.66;7306017;19;130279;-33
2023/07/21 02:52:28;;;;;;;44.20;2.40;;;;;;;26.72;54.79;99085.31;7309373;19;129883;-35
2023/07/21 02:54:54;;;;;;;60.22;3.35;;;;;;;26.71;54.66;99070.47;7316167;19;128854;-32
2023/07/21 02:57:19;;;;;;;17.17;1.13;;;;;;;26.72;54.77;99074.75;7314522;19;129000;-34
2023/07/21 02:59:45;;;;;;;23.60;1.40;;;;;;;26.72;55.37;99074.75;7316220;19;129182;-35
2023/07/21 03:02:12;;;;;;;48.97;2.78;;;;;;;26.72;54.79;99077.38;7313754;19;130479;-38
2023/07/21 03:04:42;;;;;;;15.60;1.05;;;;;;;26.29;51.39;99075.59;7316975;19;128890;-34
2023/07/21 03:07:08;;;;;;;92.63;5.75;;;;;;;26.17;50.14;99084.94;7315010;19;128728;-36
2023/07/21 03:09:33;;;;;;;24.90;1.40;;;;;;;26.15;52.70;99083.47;7315440;19;129745;-35
2023/07/21 03:11:59;;;;;;;58.33;3.17;;;;;;;26.39;54.28;99086.66;7313122;19;130363;-31
2023/07/21 03:14:25;;;;;;;37.72;2.13;;;;;;;26.49;54.28;99071.41;7314381;19;129066;-34
2023/07/21 03:16:51;;;;;;;75.83;4.33;;;;;;;26.55;54.36;99073.28;7314403;19;130478;-35
2023/07/21 03:19:16;;;;;;;36.37;2.30;;;;;;;26.59;55.09;99077.16;7312597;19;129269;-35
2023/07/21 03:21:42;;;;;;;48.07;2.53;;;;;;;26.64;55.05;99076.63;7314671;19;130154;-39
2023/07/21 03:24:08;;;;;;;36.67;1.97;;;;;;;26.67;54.58;99069.22;7315232;19;129840;-30
2023/07/21 03:26:34;;;;;;;59.28;3.58;;;;;;;26.69;55.23;99075.09;7314329;19;128932;-37
2023/07/21 03:28:59;;;;;;;43.23;2.40;;;;;;;26.71;54.89;99073.09;7313786;19;131586;-33
2023/07/21 03:31:25;;;;;;;44.73;2.43;;;;;;;26.72;54.75;99073.94;7313688;19;130318;-38
2023/07/21 03:33:50;;;;;;;15.53;0.90;;;;;;;26.72;54.98;99069.47;7314528;19;129297;-32
2023/07/21 03:36:16;;;;;;;32.53;1.77;;;;;;;26.74;55.01;99071.94;7314455;19;128800;-29
2023/07/21 03:38:41;;;;;;;66.40;3.80;;;;;;;26.71;54.75;99077.53;7314082;19;130274;-31
2023/07/21 03:41:09;;;;;;;38.83;2.10;;;;;;;26.47;52.26;99081.28;7315049;19;129693;-34
2023/07/21 03:43:36;;;;;;;32.15;1.77;;;;;;;26.19;51.49;99069.78;7315204;19;128804;-35
2023/07/21 03:46:03;;;;;;;37.58;2.10;;;;;;;26.00;50.73;99051.03;7314424;19;129048;-36
2023/07/21 03:48:30;;;;;;;28.40;1.70;;;;;;;26.20;54.40;99066.13;7313483;19;129561;-34
2023/07/21 03:51:03;;;;;;;69.53;4.03;;;;;;;26.40;54.78;99059.31;7314116;19;130970;-33
2023/07/21 03:53:29;;;;;;;28.10;1.67;;;;;;;26.42;55.08;99038.84;7316962;19;129153;-31
2023/07/21 03:55:55;;;;;;;43.85;2.63;;;;;;;26.54;54.30;99047.91;7314159;19;129084;-39
2023/07/21 03:58:21;;;;;;;15.27;1.03;;;;;;;26.58;54.54;99045.72;7314544;19;129600;-31
2023/07/21 04:00:47;;;;;;;42.85;2.33;;;;;;;26.62;54.91;99047.81;7314876;19;129917;-36
2023/07/21 04:03:13;;;;;;;102.32;5.97;;;;;;;26.64;54.43;99056.34;7307835;19;129477;-30
2023/07/21 04:05:39;;;;;;;28.30;1.67;;;;;;;26.67;54.51;99050.75;7315080;19;130262;-32
2023/07/21 04:08:05;;;;;;;43.50;2.43;;;;;;;26.64;54.83;99051.06;7313158;19;131347;-36
2023/07/21 04:10:31;;;;;;;41.73;2.30;;;;;;;26.62;54.63;99044.34;7311865;19;132712;-37
2023/07/21 04:12:57;;;;;;;28.35;1.60;;;;;;;26.62;55.46;99042.53;7311715;19;130451;-33
2023/07/21 04:15:24;;;;;;;63.08;3.67;;;;;;;26.53;54.74;99027.00;7312980;19;130670;-37
2023/07/21 04:17:53;;;;;;;54.53;2.95;;;;;;;26.51;55.12;99029.81;7313692;19;130535;-29
2023/07/21 04:20:19;;;;;;;52.38;2.97;;;;;;;26.22;51.09;99037.78;7313189;19;129800;-39
2023/07/21 04:22:45;;;;;;;45.73;2.50;;;;;;;26.07;51.37;99033.50;7312219;19;131627;-31
2023/07/21 04:25:11;;;;;;;26.75;1.58;;;;;;;25.98;50.29;99019.56;7313813;19;129934;-33
2023/07/21 04:27:37;;;;;;;66.87;4.03;;;;;;;26.29;54.20;99038.69;7311771;19;129013;-32
2023/07/21 04:30:03;;;;;;;35.53;1.90;;;;;;;26.42;54.22;99030.94;7312618;19;130645;-33
2023/07/21 04:32:28;;;;;;;32.03;1.93;;;;;;;26.49;54.45;99031.03;7311909;19;130048;-32
2023/07/21 04:34:54;;;;;;;36.43;1.97;;;;;;;26.43;55.11;99010.66;7313590;19;129253;-35
2023/07/21 04:37:20;;;;;;;36.95;1.98;;;;;;;26.55;54.59;99023.19;7314172;19;130474;-34
2023/07/21 04:39:45;;;;;;;73.83;4.30;;;;;;;26.57;55.22;99026.47;7313631;19;129965;-35
2023/07/21 04:42:11;;;;;;;24.27;1.37;;;;;;;26.58;54.78;99020.19;7312627;19;129122;-32
2023/07/21 04:44:36;;;;;;;25.83;1.50;;;;;;;26.57;54.98;99026.47;7313810;19;128972;-39
2023/07/21 04:47:05;;;;;;;43.73;2.33;;;;;;;26.55;55.09;99015.28;7312549;19;130980;-32
2023/07/21 04:49:31;;;;;;;37.35;2.08;;;;;;;26.57;55.07;99026.47;7313387;19;129219;-35
2023/07/21 04:51:58;;;;;;;57.85;3.53;;;;;;;26.59;55.11;99032.34;7312073;19;130245;-30
2023/07/21 04:54:24;;;;;;;24.05;1.38;;;;;;;26.49;55.40;99023.94;7313786;19;129906;-29
2023/07/21 04:56:50;;;;;;;42.83;2.27;;;;;;;26.44;51.96;99034.22;7312441;19;131422;-38
2023/07/21 04:59:16;;;;;;;37.77;2.00;;;;;;;26.10;51.20;99031.31;7313804;19;131226;-36
2023/07/21 05:01:42;;;;;;;27.80;1.52;;;;;;;26.05;51.17;99033.69;7311793;19;128857;-35
2023/07/21 05:04:07;;;;;;;56.30;3.37;;;;;;;26.13;53.86;99028.31;7311890;19;132566;-31
2023/07/21 05:06:33;;;;;;;38.27;2.07;;;;;;;26.36;54.68;99025.59;7312531;19;130130;-35
2023/07/21 05:08:58;;;;;;;37.17;2.13;;;;;;;26.45;54.74;99025.28;7310685;19;130202;-38
2023/07/21 05:11:23;;;;;;;32.53;1.97;;;;;;;26.41;54.83;99012.69;7311473;19;129917;-34
2023/07/21 05:13:51;;;;;;;18.60;1.20;;;;;;;26.55;54.86;99036.38;7312083;19;128969;-35
2023/07/21 05:16:16;;;;;;;77.95;4.50;;;;;;;26.57;55.09;99029.09;7308869;19;130981;-35
2023/07/21 05:18:42;;;;;;;36.77;2.03;;;;;;;26.60;54.60;99028.72;7312048;19;129167;-36
2023/07/21 05:21:07;;;;;;;68.37;3.83;;;;;;;26.61;55.54;99025.06;7311268;19;129951;-39
2023/07/21 05:23:32;;;;;;;46.27;2.37;;;;;;;26.63;54.88;99023.06;7312059;19;129426;-35
2023/07/21 05:26:00;;;;;;;38.13;2.10;;;;;;;26.65;55.40;99025.53;7311438;19;129379;-39
2023/07/21 05:28:26;;;;;;;42.78;2.55;;;;;;;26.66;55.22;99022.72;7310457;19;129200;-38
2023/07/21 05:30:51;;;;;;;24.10;1.45;;;;;;;26.68;55.12;99031.28;7309077;19;128949;-35
2023/07/21 05:33:17;;;;;;;61.10;3.67;;;;;;;26.65;54.94;99015.84;7308122;19;129384;-32
2023/07/21 05:35:42;;;;;;;37.77;2.10;;;;;;;26.38;52.04;99011.22;7312144;19;129998;-37
2023/07/21 05:38:09;;;;;;;23.77;1.40;;;;;;;26.09;50.84;98998.09;7312192;19;130324;-36
2023/07/21 05:40:34;;;;;;;27.88;1.67;;;;;;;26.11;50.58;99016.34;7309360;19;128664;-34
2023/07/21 05:43:01;;;;;;;40.77;2.40;;;;;;;26.27;54.43;99008.22;7308658;19;128981;-39
2023/07/21 05:45:26;;;;;;;72.65;4.20;;;;;;;26.34;54.50;98996.78;7310778;19;130335;-37
2023/07/21 05:47:52;;;;;;;32.37;1.73;;;;;;;26.48;54.70;99008.28;7311345;19;130403;-34
2023/07/21 05:50:17;;;;;;;28.57;1.70;;;;;;;26.53;55.00;99012.00;7307524;19;131003;-32
2023/07/21 05:52:42;;;;;;;29.50;1.73;;;;;;;26.54;54.57;98997.81;7309135;19;129224;-34
2023/07/21 05:55:08;;;;;;;33.33;1.87;;;;;;;26.58;54.50;98999.09;7311758;19;130755;-37
2023/07/21 05:57:34;;;;;;;61.53;3.63;;;;;;;26.61;54.94;98993.44;7310386;19;131085;-33
2023/07/21 05:59:59;;;;;;;22.00;1.30;;;;;;;26.61;55.42;98990.00;7311234;19;129291;-32
2023/07/21 06:02:25;;;;;;;48.30;2.53;;;;;;;26.54;54.50;98976.72;7308582;19;129366;-35
2023/07/21 06:04:51;;;;;;;28.27;1.63;;;;;;;26.66;55.42;98990.25;7311784;19;130176;-34
2023/07/21 06:07:17;;;;;;;48.95;2.63;;;;;;;26.67;55.10;98998.00;7310545;19;130396;-32
2023/07/21 06:09:42;;;;;;;63.30;3.73;;;;;;;26.66;55.15;98993.72;7308363;19;131640;-34
2023/07/21 06:12:08;;;;;;;40.80;2.23;;;;;;;26.65;55.08;98989.47;7308725;19;130308;-39
2023/07/21 06:14:34;;;;;;;41.42;2.53;;;;;;;26.24;50.68;98996.25;7311080;19;130102;-38
2023/07/21 06:16:59;;;;;;;46.27;2.80;;;;;;;26.07;50.58;98989.53;7311036;19;131890;-35
2023/07/21 06:19:25;;;;;;;49.47;2.63;;;;;;;25.98;52.57;98974.78;7310003;19;129048;-33
2023/07/21 06:21:51;;;;;;;58.03;3.27;;;;;;;26.31;54.58;98986.59;7309069;19;129533;-29
2023/07/21 06:24:19;;;;;;;51.47;2.70;;;;;;;26.33;54.21;98974.03;7307901;19;131072;-35
2023/07/21 06:26:44;;;;;;;61.67;3.60;;;;;;;26.48;54.56;98985.38;7311919;19;130299;-31
2023/07/21 06:29:09;;;;;;;22.67;1.40;;;;;;;26.53;54.61;98990.09;7316193;19;129219;-33
2023/07/21 06:31:35;;;;;;;40.00;2.13;;;;;;;26.57;54.88;98984.28;7316429;19;129135;-37
2023/07/21 06:34:00;;;;;;;27.10;1.50;;;;;;;26.59;54.99;98982.25;7316097;19;130804;-34
2023/07/21 06:36:26;;;;;;;30.20;1.70;;;;;;;26.58;55.33;98972.72;7317173;19;130357;-35
2023/07/21 06:38:51;;;;;;;45.47;2.80;;;;;;;26.63;55.13;98980.88;7315921;19;129177;-37
2023/07/21 06:41:16;;;;;;;45.63;2.47;;;;;;;26.64;55.31;98971.16;7317104;19;130483;-37
2023/07/21 06:43:42;;;;;;;61.43;3.77;;;;;;;26.65;54.97;98981.53;7315873;19;130406;-39
2023/07/21 06:46:07;;;;;;;26.00;1.47;;;;;;;26.64;54.87;98977.22;7316259;19;129235;-37
2023/07/21 06:48:33;;;;;;;39.57;2.17;;;;;;;26.54;55.04;98966.16;7315879;19;128894;-34
2023/07/21 06:50:58;;;;;;;82.37;4.73;;;;;;;26.45;51.95;98971.75;7314760;19;129960;-35
2023/07/21 06:53:23;;;;;;;33.20;1.80;;;;;;;26.19;51.27;98981.97;7313231;19;132327;-38
2023/07/21 06:55:49;;;;;;;21.60;1.30;;;;;;;26.09;50.80;98969.09;7316132;19;129615;-34
2023/07/21 06:58:15;;;;;;;46.43;2.47;;;;;;;26.14;53.85;98974.63;7315439;19;129152;-34
2023/07/21 07:00:40;;;;;;;34.47;1.90;;;;;;;26.34;54.81;98970.44;7317571;19;129283;-37
2023/07/21 07:03:06;;;;;;;63.77;3.73;;;;;;;26.42;54.83;98962.41;7313359;19;129491;-38
2023/07/21 07:05:31;;;;;;;3.13;0.30;;;;;;;26.45;54.76;98964.66;7316595;19;129311;-34
2023/07/21 07:07:57;;;;;;;46.17;2.53;;;;;;;26.52;54.86;98970.00;7314561;19;129546;-36
2023/07/21 07:10:22;;;;;;;21.73;1.33;;;;;;;26.55;54.57;98964.34;7315194;19;128932;-39
2023/07/21 07:12:47;;;;;;;30.40;1.60;;;;;;;26.59;54.87;98976.19;7313836;19;130181;-31
2023/07/21 07:15:13;;;;;;;33.70;2.03;;;;;;;26.60;54.81;98970.72;7314768;19;130290;-34
2023/07/21 07:17:38;;;;;;;30.03;1.70;;;;;;;26.59;55.04;98965.63;7314539;19;129343;-33
2023/07/21 07:20:04;;;;;;;47.20;2.50;;;;;;;26.63;55.12;98967.69;7316839;19;129258;-34
2023/07/21 07:22:30;;;;;;;25.43;1.47;;;;;;;26.64;55.29;98960.63;7314793;19;129294;-35
2023/07/21 07:24:55;;;;;;;32.40;1.83;;;;;;;26.65;55.22;98963.09;7316559;19;130239;-37
2023/07/21 07:27:20;;;;;;;75.73;4.43;;;;;;;26.63;55.36;98961.59;7314660;19;129886;-36
2023/07/21 07:29:47;;;;;;;24.70;1.40;;;;;;;26.30;51.60;98965.69;7315399;19;131491;-34
2023/07/21 07:32:13;;;;;;;48.90;2.85;;;;;;;26.07;50.90;98963.19;7313191;19;131778;-35
2023/07/21 07:34:38;;;;;;;37.38;1.95;;;;;;;26.05;50.47;98965.19;7315809;19;130368;-34
2023/07/21 07:37:04;;;;;;;55.13;3.40;;;;;;;26.21;54.09;98965.00;7315259;19;130145;-36
2023/07/21 07:39:30;;;;;;;42.10;2.43;;;;;;;26.36;54.71;98971.03;7313012;19;129579;-28
2023/07/21 07:41:55;;;;;;;30.43;1.77;;;;;;;26.44;54.68;98959.59;7313539;19;130787;-36
2023/07/21 07:44:20;;;;;;;67.87;3.90;;;;;;;26.48;54.93;98956.38;7314447;19;129703;-33
2023/07/21 07:46:46;;;;;;;28.33;1.60;;;;;;;26.50;55.02;98946.47;7315542;19;129287;-35
2023/07/21 07:49:11;;;;;;;14.03;0.90;;;;;;;26.57;55.05;98952.63;7314540;19;128971;-38
2023/07/21 07:51:39;;;;;;;28.93;1.77;;;;;;;26.58;54.84;98950.78;7313273;19;130193;-34
2023/07/21 07:54:05;;;;;;;23.85;1.40;;;;;;;26.59;55.09;98945.31;7314593;19;129313;-34
2023/07/21 07:56:31;;;;;;;70.57;4.15;;;;;;;26.62;54.63;98942.34;7314857;19;129608;-34
2023/07/21 07:58:57;;;;;;;24.98;1.45;;;;;;;26.62;55.30;98931.78;7314929;19;129521;-32
2023/07/21 08:01:23;;;;;;;29.13;1.60;;;;;;;26.62;54.51;98923.88;7312394;19;130042;-35
2023/07/21 08:03:49;;;;;;;39.63;2.17;;;;;;;26.52;55.06;98912.00;7315328;19;129254;-34
2023/07/21 08:06:15;;;;;;;59.97;3.63;;;;;;;26.59;54.74;98929.50;7314508;19;129434;-38
2023/07/21 08:08:41;;;;;;;65.33;3.90;;;;;;;26.19;51.55;98924.84;7314834;19;129333;-32
2023/07/21 08:11:08;;;;;;;26.10;1.70;;;;;;;26.05;50.67;98930.94;7311393;19;130912;-27
2023/07/21 08:13:34;;;;;;;68.70;3.75;;;;;;;26.00;50.67;98941.19;7312881;19;131296;-35
2023/07/21 08:16:00;;;;;;;18.25;1.17;;;;;;;26.24;54.09;98935.63;7314959;19;130541;-37
2023/07/21 08:18:25;;;;;;;10.80;0.70;;;;;;;26.37;54.50;98935.78;7314302;19;129297;-32
2023/07/21 08:20:51;;;;;;;51.53;2.67;;;;;;;26.44;54.81;98927.94;7314031;19;130518;-37
2023/07/21 08:23:16;;;;;;;86.77;5.00;;;;;;;26.48;55.04;98930.00;7310168;19;130146;-34
2023/07/21 08:25:42;;;;;;;66.57;3.77;;;;;;;26.53;55.25;98942.63;7313640;19;129446;-34
2023/07/21 08:28:08;;;;;;;23.30;1.37;;;;;;;26.57;55.05;98936.81;7314299;19;129191;-35
2023/07/21 08:30:35;;;;;;;29.50;1.63;;;;;;;26.58;55.01;98930.53;7311498;19;130911;-37
2023/07/21 08:33:01;;;;;;;40.78;2.20;;;;;;;26.53;55.16;98922.34;7311226;19;131212;-33
2023/07/21 08:35:27;;;;;;;;;;;;;;;26.71;54.82;98930.69;7315953;19;129594;-33
2023/07/21 08:37:53;;;;;;;48.95;3.08;;;;;;;26.53;54.91;98911.00;7311870;19;129411;-35
2023/07/21 08:40:19;;;;;;;31.93;1.67;;;;;;;26.62;54.75;98930.97;7314019;19;130195;-33
2023/07/21 08:42:45;;;;;;;66.20;3.60;;;;;;;26.62;55.07;98930.97;7310491;19;129596;-33
2023/07/21 08:45:14;;;;;;;66.73;3.97;;;;;;;26.23;51.74;98926.09;7313408;19;129355;-36
2023/07/21 08:47:40;;;;;;;26.10;1.50;;;;;;;26.10;50.98;98927.78;7312464;19;128951;-40
2023/07/21 08:50:06;;;;;;;42.57;2.47;;;;;;;25.99;50.65;98926.38;7310072;19;131689;-33
2023/07/21 08:52:32;;;;;;;42.80;2.43;;;;;;;26.21;54.11;98933.38;7312138;19;130439;-35
2023/07/21 08:54:57;;;;;;;47.35;2.75;;;;;;;26.35;54.54;98921.16;7314269;19;129053;-35
2023/07/21 08:57:23;;;;;;;26.43;1.47;;;;;;;26.31;55.12;98907.50;7311824;19;129366;-34
2023/07/21 08:59:49;;;;;;;53.83;3.07;;;;;;;26.45;54.45;98919.84;7312268;19;129110;-35
2023/07/21 09:02:15;;;;;;;38.63;2.08;;;;;;;26.51;55.39;98920.94;7311790;19;130388;-36
2023/07/21 09:04:43;;;;;;;24.53;1.47;;;;;;;26.54;55.12;98923.97;7313088;19;128814;-33
2023/07/21 09:07:10;;;;;;;56.00;3.63;;;;;;;26.54;55.23;98923.97;7310985;19;128981;-32
2023/07/21 09:09:35;;;;;;;34.60;1.92;;;;;;;26.56;54.80;98921.97;7311523;19;129177;-36
2023/07/21 09:12:07;;;;;;;78.67;4.40;;;;;;;26.57;55.09;98918.34;7308766;19;130501;-34
2023/07/21 09:14:36;;;;;;;28.38;1.63;;;;;;;26.58;55.66;98922.63;7313829;19;128925;-33
2023/07/21 09:17:04;;;;;;;100.50;6.13;;;;;;;26.57;54.87;98921.00;7311271;19;130099;-34
2023/07/21 09:19:34;;;;;;;8.52;0.70;;;;;;;26.60;54.87;98917.97;7312429;19;131122;-37
2023/07/21 09:21:59;;;;;;;69.40;4.05;;;;;;;26.44;52.23;98918.22;7310417;19;130348;-37
2023/07/21 09:24:25;;;;;;;26.27;1.53;;;;;;;26.07;50.69;98913.13;7312630;19;129045;-36
2023/07/21 09:27:09;;;;;;;43.80;2.43;;;;;;;26.02;51.32;98917.31;7310365;19;128915;-38
2023/07/21 09:29:34;;;;;;;31.48;1.70;;;;;;;26.11;54.03;98924.94;7311700;19;129945;-35
2023/07/21 09:32:00;;;;;;;59.47;3.60;;;;;;;26.30;54.61;98928.78;7309957;19;130443;-35
2023/07/21 09:34:25;;;;;;;32.30;1.73;;;;;;;26.37;54.88;98917.34;7312107;19;129932;-35
2023/07/21 09:36:50;;;;;;;52.20;2.83;;;;;;;26.42;54.98;98925.50;7312434;19;130183;-34
2023/07/21 09:39:17;;;;;;;31.47;1.87;;;;;;;26.45;55.11;98914.56;7309355;19;131170;-36
2023/07/21 09:41:44;;;;;;;21.45;1.20;;;;;;;26.49;55.06;98920.28;7312291;19;130517;-31
2023/07/21 09:44:11;;;;;;;37.75;2.05;;;;;;;26.52;55.01;98915.47;7313538;19;129238;-35
2023/07/21 09:46:37;;;;;;;;;;;;;;;26.64;55.61;98913.94;7314542;19;130149;-34
2023/07/21 09:49:03;;;;;;;26.50;1.67;;;;;;;26.57;55.05;98906.97;7310966;19;129111;-39
2023/07/21 09:51:29;;;;;;;23.93;1.40;;;;;;;26.58;55.10;98912.06;7308267;19;129362;-33
2023/07/21 09:53:57;;;;;;;30.90;1.67;;;;;;;26.57;55.12;98899.91;7311656;19;129210;-35
2023/07/21 09:56:26;;;;;;;38.67;2.30;;;;;;;26.54;55.32;98897.63;7311801;19;130279;-31
2023/07/21 09:58:56;;;;;;;25.33;1.48;;;;;;;26.56;55.12;98900.09;7310854;19;129437;-38
2023/07/21 10:01:23;;;;;;;62.80;3.65;;;;;;;26.20;51.64;98900.09;7311565;19;129395;-32
2023/07/21 10:03:49;;;;;;;42.10;2.17;;;;;;;26.03;51.46;98900.53;7325739;19;129113;-37
2023/07/21 10:06:15;;;;;;;59.50;3.30;;;;;;;26.04;51.10;98902.16;7325015;19;129311;-33
2023/07/21 10:08:41;;;;;;;22.33;1.33;;;;;;;26.22;54.33;98903.38;7324123;19;131105;-33
2023/07/21 10:11:07;;;;;;;23.73;1.33;;;;;;;26.32;54.52;98896.00;7321756;19;129212;-43
2023/07/21 10:13:33;;;;;;;27.50;1.57;;;;;;;26.38;54.82;98902.31;7324236;19;129105;-36
2023/07/21 10:16:01;;;;;;;31.70;1.83;;;;;;;26.43;54.77;98897.28;7325216;19;128801;-33
2023/07/21 10:18:26;;;;;;;57.22;3.47;;;;;;;26.46;54.93;98900.38;7322569;19;130236;-36
2023/07/21 10:20:56;;;;;;;37.43;2.07;;;;;;;26.50;55.54;98899.00;7324474;19;130103;-32
2023/07/21 10:23:38;;;;;;;72.35;4.13;;;;;;;26.52;55.34;98899.66;7320979;19;128807;-38
2023/07/21 10:26:04;;;;;;;47.92;2.55;;;;;;;26.49;54.74;98894.75;7324147;19;128955;-37
2023/07/21 10:28:30;;;;;;;;;;;;;;;26.63;55.55;98901.78;7323820;19;131350;-35
2023/07/21 10:31:21;;;;;;;23.93;1.53;;;;;;;26.58;55.14;98904.16;7322412;19;129454;-35
2023/07/21 10:34:05;;;;;;;26.63;1.50;;;;;;;26.60;55.54;98896.88;7323223;19;128768;-35
2023/07/21 10:36:52;;;;;;;51.38;3.05;;;;;;;26.59;55.86;98900.50;7324309;19;129517;-35
2023/07/21 10:39:41;;;;;;;28.83;1.77;;;;;;;26.11;52.08;98901.25;7323431;19;130119;-34
2023/07/21 10:42:08;;;;;;;27.17;1.50;;;;;;;25.97;51.28;98894.13;7323142;19;130602;-35
2023/07/21 10:44:39;;;;;;;65.70;3.70;;;;;;;26.01;53.38;98890.19;7323857;19;129177;-33
2023/07/21 10:47:10;;;;;;;71.65;4.10;;;;;;;26.21;54.30;98896.50;7323098;19;129325;-37
2023/07/21 10:49:35;;;;;;;42.75;2.53;;;;;;;26.31;54.17;98891.69;7322736;19;130115;-35
2023/07/21 10:52:01;;;;;;;26.67;1.40;;;;;;;26.37;55.23;98893.63;7323100;19;130823;-34
2023/07/21 10:54:26;;;;;;;44.73;2.67;;;;;;;26.41;54.95;98892.22;7322580;19;129281;-37
2023/07/21 10:56:51;;;;;;;40.17;2.23;;;;;;;26.37;55.26;98880.44;7323390;19;129024;-34
2023/07/21 10:59:18;;;;;;;25.97;1.40;;;;;;;26.48;54.79;98887.84;7323474;19;131092;-34
2023/07/21 11:01:49;;;;;;;15.73;1.08;;;;;;;26.38;55.70;98855.69;7320938;19;129960;-38
2023/07/21 11:04:16;;;;;;;29.90;1.67;;;;;;;26.51;55.12;98870.84;7323272;19;129456;-35
2023/07/21 11:06:43;;;;;;;56.92;3.25;;;;;;;26.53;55.28;98876.72;7323634;19;130279;-36
2023/07/21 11:09:11;;;;;;;;;;;;;;;26.62;55.79;98872.97;7324560;19;130263;-36
2023/07/21 11:11:41;;;;;;;70.30;4.18;;;;;;;26.55;54.99;98879.97;7320144;19;130317;-35
2023/07/21 11:14:11;;;;;;;26.80;1.52;;;;;;;26.54;55.59;98873.09;7314337;19;129339;-37
2023/07/21 11:16:54;;;;;;;54.47;3.10;;;;;;;26.16;52.26;98876.97;7315141;19;129379;-32